Watertown, South Dakota
Current Conditions -  °F | °C
As of 6:53 PM on Saturday 25 Oct 2014 (Local Time) from KATY Reporting Station
Clear Clear  
Wind Chill: 52°   Ceiling: Unl
Heat Index: 52°   Visibility: 10mi
Dew Point: 29°   Wind: 5mph
Humidity: 41%   Direction: 40°NE
Pressure: 30.08"   Gusts: NA
Location:  44.9°N, 97.1°W
Report Text: KATY 252353Z AUTO 04004KT 10SM CLR 11/M02 A3008 RMK AO2 SLP191 T01111017 10178 20111 58007 $
Loading
Personal Weather Stations






























Interactive Weather Map
Tropical Storm Tracking
New forecast layout! Learn more

10-Day Weather Forecast

Advertisements
Track Severe Weather on mobile